Time;durP1;ratioP1;P1;durP2;ratioP2;P2;SDS_P1;SDS_P2;PMS_P1;PMS_P2;Temp;Humidity;BMP_temperature;BMP_pressure;BME280_temperature;BME280_humidity;BME280_pressure;Samples;Min_cycle;Max_cycle;Signal;HPM_P1;HPM_P2
2022/01/17 00:50:20;;;;;;;15.27;8.97;;;1.30;96.30;;;;;;5186325;23;20866;-78
2022/01/17 00:52:45;;;;;;;15.43;9.97;;;1.20;96.30;;;;;;4916027;29;20429;-78
2022/01/17 00:55:11;;;;;;;14.77;9.37;;;1.20;96.30;;;;;;4916988;29;20601;-77
2022/01/17 00:57:36;;;;;;;10.97;7.90;;;1.20;96.30;;;;;;4915337;29;20293;-78
2022/01/17 05:01:53;;;;;;;6.53;4.63;;;1.50;96.30;;;;;;5210059;23;21023;-76
2022/01/17 05:04:18;;;;;;;4.50;3.87;;;1.50;96.30;;;;;;4916184;29;20503;-75
2022/01/17 05:06:44;;;;;;;5.13;4.63;;;1.50;96.30;;;;;;4899732;29;20187;-76
2022/01/17 05:09:09;;;;;;;6.47;4.90;;;1.50;96.30;;;;;;4916808;29;20180;-76
2022/01/17 05:11:35;;;;;;;6.43;4.70;;;1.50;96.30;;;;;;4916755;29;20215;-76
2022/01/17 05:14:01;;;;;;;5.27;4.20;;;1.50;96.30;;;;;;4916131;29;20693;-74
2022/01/17 05:16:33;;;;;;;7.60;4.63;;;1.50;96.30;;;;;;4913753;29;20200;-75
2022/01/17 05:24:18;;;;;;;8.83;4.77;;;1.50;96.30;;;;;;5681913;23;20484;-77
2022/01/17 05:26:44;;;;;;;5.00;4.40;;;1.50;96.30;;;;;;4897490;29;20804;-77
2022/01/17 05:29:09;;;;;;;6.60;4.57;;;1.50;96.30;;;;;;4897549;29;20181;-75
2022/01/17 05:31:35;;;;;;;5.33;4.33;;;1.60;96.30;;;;;;4897409;29;20201;-77
2022/01/17 05:34:00;;;;;;;5.70;4.50;;;1.50;96.30;;;;;;4896942;29;20184;-77
2022/01/17 05:36:26;;;;;;;6.27;4.17;;;1.50;96.30;;;;;;4890023;29;20276;-77
2022/01/17 05:38:54;;;;;;;5.27;4.10;;;1.50;96.30;;;;;;4880562;29;20181;-77
2022/01/17 05:41:20;;;;;;;5.27;3.63;;;1.60;96.30;;;;;;4897188;29;20282;-78
2022/01/17 05:43:45;;;;;;;6.33;4.33;;;1.60;96.30;;;;;;4879747;29;21139;-77
2022/01/17 05:46:11;;;;;;;8.10;4.80;;;1.60;96.30;;;;;;4892955;29;20189;-77
2022/01/17 05:48:37;;;;;;;5.60;3.93;;;1.60;96.30;;;;;;4880416;29;20597;-77
2022/01/17 05:51:02;;;;;;;4.73;4.27;;;1.60;96.30;;;;;;4896224;29;20277;-77
2022/01/17 05:53:28;;;;;;;5.30;3.57;;;1.60;96.30;;;;;;4887754;29;20197;-77
2022/01/17 05:55:53;;;;;;;6.97;4.30;;;1.70;96.30;;;;;;4896779;29;20280;-77
2022/01/17 05:58:19;;;;;;;6.03;4.07;;;1.80;96.30;;;;;;4869172;29;20188;-77
2022/01/17 06:00:44;;;;;;;5.47;4.10;;;1.80;96.30;;;;;;4874384;29;20702;-76
2022/01/17 06:03:10;;;;;;;7.90;4.77;;;1.90;96.30;;;;;;4877778;29;20638;-77
2022/01/17 06:05:36;;;;;;;6.03;4.50;;;1.90;96.30;;;;;;4861683;29;20186;-77
2022/01/17 06:08:01;;;;;;;3.93;3.27;;;1.90;96.30;;;;;;4861677;29;20280;-77
2022/01/17 06:10:26;;;;;;;6.63;4.30;;;1.90;96.30;;;;;;4892908;29;20216;-76
2022/01/17 06:12:52;;;;;;;6.50;4.40;;;1.90;96.30;;;;;;4896150;29;20196;-78
2022/01/17 06:15:18;;;;;;;5.20;4.33;;;1.90;96.30;;;;;;4896252;29;20177;-77
2022/01/17 06:17:44;;;;;;;8.73;4.50;;;1.90;96.30;;;;;;4881609;29;20209;-77
2022/01/17 06:20:10;;;;;;;6.27;3.73;;;1.90;96.30;;;;;;4878225;29;20803;-77
2022/01/17 06:22:36;;;;;;;5.10;3.97;;;1.90;96.30;;;;;;4884136;29;20429;-77
2022/01/17 06:25:03;;;;;;;5.40;4.17;;;2.00;96.30;;;;;;4895777;29;20433;-77
2022/01/17 06:27:28;;;;;;;5.93;4.33;;;2.00;96.30;;;;;;4878492;29;20176;-74
2022/01/17 06:29:54;;;;;;;6.07;4.10;;;1.90;96.30;;;;;;4896800;29;20924;-74
2022/01/17 06:32:19;;;;;;;5.60;4.10;;;1.90;96.30;;;;;;4896716;29;20205;-77
2022/01/17 06:34:45;;;;;;;7.13;4.33;;;2.00;96.30;;;;;;4896389;29;20199;-73
2022/01/17 06:37:10;;;;;;;4.63;3.30;;;2.00;96.30;;;;;;4896718;29;20224;-73
2022/01/17 06:39:36;;;;;;;8.60;4.17;;;2.00;96.30;;;;;;4896730;29;20685;-75
2022/01/17 06:42:02;;;;;;;6.60;4.60;;;2.00;96.30;;;;;;4896574;29;20296;-74
2022/01/17 06:44:27;;;;;;;8.67;3.70;;;2.00;96.30;;;;;;4896439;29;20180;-77
2022/01/17 06:46:53;;;;;;;7.00;3.73;;;2.00;96.30;;;;;;4877902;29;20430;-74
2022/01/17 06:49:18;;;;;;;4.53;3.70;;;2.00;96.30;;;;;;4896542;29;20634;-74
2022/01/17 06:51:44;;;;;;;5.43;3.10;;;2.00;96.30;;;;;;4896406;29;20605;-76
2022/01/17 06:54:10;;;;;;;5.00;4.03;;;2.00;96.30;;;;;;4896469;29;20224;-73
2022/01/17 06:56:35;;;;;;;6.43;3.90;;;2.00;96.30;;;;;;4899370;29;20291;-73
2022/01/17 06:59:01;;;;;;;5.87;3.60;;;2.00;96.30;;;;;;4900315;29;20177;-74
2022/01/17 07:01:26;;;;;;;7.57;3.10;;;2.00;96.30;;;;;;4900127;29;20283;-77
2022/01/17 07:03:52;;;;;;;5.80;4.77;;;2.00;96.30;;;;;;4900071;29;20169;-74
2022/01/17 07:06:18;;;;;;;6.50;4.40;;;2.00;96.30;;;;;;4900153;29;20632;-74
2022/01/17 07:08:45;;;;;;;7.27;4.47;;;2.00;96.30;;;;;;4883152;29;20185;-74
2022/01/17 07:11:11;;;;;;;7.47;4.13;;;2.00;96.30;;;;;;4899972;29;21072;-74
2022/01/17 07:13:37;;;;;;;5.50;3.20;;;2.00;96.30;;;;;;4899830;29;20413;-76
2022/01/17 07:16:03;;;;;;;9.27;4.40;;;2.00;96.30;;;;;;4899845;29;20413;-73
2022/01/17 07:18:29;;;;;;;11.03;4.07;;;2.10;96.30;;;;;;4900001;29;20980;-74
2022/01/17 07:20:54;;;;;;;5.43;3.07;;;2.00;96.30;;;;;;4899794;29;20189;-74
2022/01/17 07:23:19;;;;;;;7.27;3.93;;;2.00;96.30;;;;;;4899710;29;20189;-74
2022/01/17 07:25:45;;;;;;;7.70;3.53;;;2.00;96.30;;;;;;4899754;29;20686;-77
2022/01/17 07:28:13;;;;;;;6.90;3.70;;;2.00;96.30;;;;;;4899683;29;20209;-74
2022/01/17 07:30:38;;;;;;;5.40;3.43;;;2.00;96.30;;;;;;4899623;29;20193;-74
2022/01/17 07:33:05;;;;;;;7.03;3.70;;;2.00;96.30;;;;;;4899533;29;20856;-74
2022/01/17 07:35:31;;;;;;;5.10;3.40;;;2.00;96.30;;;;;;4899331;29;20212;-74
2022/01/17 07:37:56;;;;;;;5.27;3.03;;;2.00;96.30;;;;;;4899492;29;20488;-75
2022/01/17 07:40:22;;;;;;;5.17;3.03;;;1.90;96.30;;;;;;4882649;29;20441;-76
2022/01/17 07:42:48;;;;;;;9.70;3.10;;;1.90;96.30;;;;;;4899349;29;20204;-75
2022/01/17 07:45:16;;;;;;;8.90;3.03;;;2.00;96.30;;;;;;4899421;29;20417;-74
2022/01/17 07:47:55;;;;;;;10.83;3.13;;;1.90;96.30;;;;;;4899597;29;20177;-74
2022/01/17 07:50:23;;;;;;;10.37;3.30;;;1.90;96.30;;;;;;4899479;29;20406;-75
2022/01/17 07:52:49;;;;;;;7.90;3.37;;;1.90;96.30;;;;;;4899469;29;20417;-76
2022/01/17 07:55:16;;;;;;;6.53;3.03;;;1.90;96.30;;;;;;4899187;29;20456;-75
2022/01/17 07:57:42;;;;;;;6.93;3.40;;;1.90;96.30;;;;;;4882523;29;20499;-78
2022/01/17 08:00:11;;;;;;;9.93;2.80;;;1.90;96.30;;;;;;4899313;29;20420;-75
2022/01/17 08:02:37;;;;;;;6.87;2.97;;;1.90;96.30;;;;;;4899291;29;20425;-75
2022/01/17 08:05:03;;;;;;;6.17;2.97;;;1.90;96.30;;;;;;4899067;29;20469;-76
2022/01/17 08:07:29;;;;;;;8.87;3.10;;;1.80;96.30;;;;;;4881191;29;20276;-76
2022/01/17 08:09:55;;;;;;;10.33;3.93;;;1.90;96.30;;;;;;4899231;29;20445;-76
2022/01/17 08:12:20;;;;;;;7.07;2.70;;;1.90;96.30;;;;;;4899069;29;20320;-78
2022/01/17 08:14:46;;;;;;;9.03;3.27;;;1.80;96.30;;;;;;4898908;29;20220;-75
2022/01/17 08:17:11;;;;;;;13.03;4.17;;;1.90;96.30;;;;;;4882229;29;20287;-75
2022/01/17 08:19:37;;;;;;;6.63;3.40;;;1.90;96.30;;;;;;4898972;29;20259;-76
2022/01/17 08:22:05;;;;;;;7.60;3.43;;;1.90;96.30;;;;;;4882085;29;20201;-75
2022/01/17 08:24:31;;;;;;;9.10;4.23;;;1.90;96.30;;;;;;4881768;29;20197;-75
2022/01/17 08:26:57;;;;;;;8.30;4.30;;;1.80;96.30;;;;;;4882025;29;20425;-75
2022/01/17 08:29:25;;;;;;;9.30;3.67;;;1.80;96.30;;;;;;4898832;29;20420;-75
2022/01/17 08:31:51;;;;;;;7.83;3.80;;;1.80;96.30;;;;;;4881980;29;20558;-75
2022/01/17 08:34:17;;;;;;;9.10;4.03;;;1.90;96.30;;;;;;4898549;29;20500;-75
2022/01/17 08:36:44;;;;;;;11.07;4.03;;;1.90;96.30;;;;;;4898693;29;20327;-75
2022/01/17 08:39:10;;;;;;;14.63;4.60;;;1.90;96.30;;;;;;4898672;29;20409;-75
2022/01/17 08:41:42;;;;;;;11.70;5.50;;;1.80;96.30;;;;;;4898521;29;20425;-77
2022/01/17 08:44:09;;;;;;;12.93;4.67;;;1.90;96.30;;;;;;4898329;29;20429;-75
2022/01/17 08:46:34;;;;;;;10.57;4.50;;;2.00;96.30;;;;;;4897321;29;20413;-76
2022/01/17 08:49:00;;;;;;;12.30;5.10;;;2.00;96.30;;;;;;4898515;29;20473;-75
2022/01/17 08:51:25;;;;;;;7.70;3.73;;;2.00;96.30;;;;;;4898327;29;20205;-74
2022/01/17 08:53:50;;;;;;;7.73;4.40;;;2.00;96.30;;;;;;4896995;29;20193;-75
2022/01/17 08:56:16;;;;;;;8.93;3.50;;;2.00;96.30;;;;;;4898313;29;20208;-77
2022/01/17 08:58:41;;;;;;;9.43;4.07;;;2.00;96.30;;;;;;4898342;29;20220;-74
2022/01/17 09:01:08;;;;;;;10.00;3.47;;;1.90;96.30;;;;;;4898291;29;20189;-74
2022/01/17 09:03:34;;;;;;;7.80;3.07;;;1.90;96.30;;;;;;4898092;29;20611;-74
2022/01/17 09:05:59;;;;;;;15.83;3.23;;;2.00;96.30;;;;;;4898233;29;20492;-74
2022/01/17 09:08:25;;;;;;;9.10;3.40;;;1.90;96.30;;;;;;4898147;29;20272;-76
2022/01/17 09:10:54;;;;;;;8.03;2.70;;;1.90;96.30;;;;;;4898069;29;20244;-75
2022/01/17 09:13:20;;;;;;;14.00;3.20;;;1.90;96.30;;;;;;4897821;29;20180;-75
2022/01/17 09:15:45;;;;;;;7.07;2.53;;;1.90;96.30;;;;;;4881217;29;20422;-74
2022/01/17 09:18:14;;;;;;;9.67;3.47;;;1.90;96.30;;;;;;4897597;29;20636;-77
2022/01/17 09:20:40;;;;;;;5.97;3.03;;;1.90;96.30;;;;;;4897862;29;20248;-76
2022/01/17 09:23:05;;;;;;;7.30;3.60;;;1.90;96.30;;;;;;4897839;29;20797;-75
2022/01/17 09:25:32;;;;;;;14.80;3.73;;;1.90;96.30;;;;;;4897622;29;20436;-75
2022/01/17 09:27:58;;;;;;;3.87;2.20;;;1.90;96.30;;;;;;4897715;29;20212;-75
2022/01/17 09:30:24;;;;;;;11.13;2.93;;;1.90;96.30;;;;;;4897690;29;20467;-74
2022/01/17 09:32:50;;;;;;;7.97;3.20;;;1.90;96.30;;;;;;4897717;29;20232;-74
2022/01/17 09:35:16;;;;;;;7.47;3.20;;;1.90;96.30;;;;;;4897340;29;20196;-73
2022/01/17 09:37:42;;;;;;;6.70;2.90;;;1.80;96.30;;;;;;4897597;29;20197;-73
2022/01/17 09:40:09;;;;;;;10.27;4.00;;;1.80;96.30;;;;;;4897490;29;20413;-73
2022/01/17 09:42:37;;;;;;;9.43;2.93;;;1.80;96.30;;;;;;4897477;29;20177;-73
2022/01/17 09:45:11;;;;;;;8.57;3.23;;;1.80;96.30;;;;;;4880474;29;20420;-73
2022/01/17 09:47:37;;;;;;;9.57;3.30;;;1.80;96.30;;;;;;4897483;29;20520;-72
2022/01/17 09:50:06;;;;;;;5.50;2.40;;;1.80;96.30;;;;;;4897529;29;20496;-72
2022/01/17 09:52:35;;;;;;;6.73;3.10;;;1.80;96.30;;;;;;4897346;29;20445;-72
2022/01/17 09:55:15;;;;;;;5.63;2.67;;;1.80;96.30;;;;;;4897219;29;20802;-71
2022/01/17 09:57:48;;;;;;;7.57;2.73;;;1.80;96.30;;;;;;4880419;29;20467;-71
2022/01/17 10:00:16;;;;;;;6.50;2.43;;;1.80;96.30;;;;;;4897225;29;20816;-71
2022/01/17 10:02:42;;;;;;;6.67;2.73;;;1.70;96.30;;;;;;4897284;29;21013;-71
2022/01/17 10:05:08;;;;;;;7.17;3.00;;;1.70;96.30;;;;;;4896962;29;20496;-71
2022/01/17 10:07:54;;;;;;;9.57;2.77;;;1.60;96.30;;;;;;4897154;29;20209;-71
2022/01/17 10:10:44;;;;;;;8.63;3.37;;;1.60;96.30;;;;;;4877048;29;20823;-71
2022/01/17 10:13:15;;;;;;;7.50;2.67;;;1.60;96.30;;;;;;4878279;29;20987;-71
2022/01/17 10:16:15;;;;;;;6.87;2.80;;;1.60;96.30;;;;;;4878472;29;20442;-72
2022/01/17 10:18:53;;;;;;;10.23;3.13;;;1.60;96.30;;;;;;4865108;29;20432;-72
2022/01/17 10:21:31;;;;;;;6.17;2.47;;;1.70;96.30;;;;;;4861623;29;20461;-75
2022/01/17 10:29:54;;;;;;;10.60;2.40;;;1.80;96.30;;;;;;4878360;29;20417;-74
2022/01/17 10:35:08;;;;;;;5.40;2.00;;;1.90;96.30;;;;;;4887221;29;20429;-77
2022/01/17 10:37:34;;;;;;;7.50;2.97;;;1.90;96.30;;;;;;4900811;29;20532;-73
2022/01/17 10:40:12;;;;;;;6.77;3.07;;;1.90;96.30;;;;;;4900825;29;20909;-73
2022/01/17 10:42:45;;;;;;;9.07;2.63;;;1.90;96.30;;;;;;4883900;29;20191;-75
2022/01/17 10:45:25;;;;;;;6.13;2.90;;;2.00;96.30;;;;;;4900523;29;20441;-74
2022/01/17 10:47:53;;;;;;;11.10;3.60;;;2.00;96.30;;;;;;4900671;29;20515;-73
2022/01/17 10:50:25;;;;;;;3.90;2.10;;;2.00;96.30;;;;;;4900364;29;20910;-73
2022/01/17 10:52:56;;;;;;;7.03;2.30;;;2.00;96.30;;;;;;4883744;29;20468;-73
2022/01/17 10:55:27;;;;;;;6.27;2.50;;;2.00;96.30;;;;;;4900315;29;20825;-73
2022/01/17 10:57:55;;;;;;;5.00;2.87;;;2.00;96.30;;;;;;4900443;29;20526;-75
2022/01/17 11:00:26;;;;;;;5.00;2.27;;;2.00;96.30;;;;;;4900365;29;20497;-74
2022/01/17 11:02:58;;;;;;;5.30;2.53;;;2.00;96.30;;;;;;4900447;29;20393;-78
2022/01/17 11:05:27;;;;;;;11.03;3.17;;;2.10;96.30;;;;;;4900181;29;20941;-74
2022/01/17 11:07:55;;;;;;;7.97;2.50;;;2.10;96.30;;;;;;4900359;29;20896;-74
2022/01/17 11:10:29;;;;;;;8.60;3.00;;;2.10;96.30;;;;;;4900175;29;20413;-75
2022/01/17 11:12:58;;;;;;;10.47;3.57;;;2.10;96.30;;;;;;4900281;29;20836;-74
2022/01/17 11:15:24;;;;;;;7.23;2.20;;;2.10;96.30;;;;;;4900674;29;20476;-75
2022/01/17 11:17:53;;;;;;;9.43;3.00;;;2.10;96.30;;;;;;4900527;29;20456;-75
2022/01/17 11:41:03;;;;;;;10.80;3.23;;;2.40;96.30;;;;;;5196400;23;20488;-78
2022/01/17 11:43:35;;;;;;;9.20;3.70;;;2.30;96.30;;;;;;4899335;29;20424;-78
2022/01/17 11:46:17;;;;;;;8.43;2.50;;;2.40;96.30;;;;;;4882804;29;20428;-78
2022/01/17 11:49:07;;;;;;;10.53;3.93;;;2.40;96.30;;;;;;4899615;29;20422;-74
2022/01/17 11:51:40;;;;;;;7.10;3.27;;;2.50;96.30;;;;;;4899746;29;20902;-73
2022/01/17 11:54:26;;;;;;;8.40;2.20;;;2.50;96.30;;;;;;4899377;29;20412;-77
2022/01/17 11:56:54;;;;;;;8.80;3.20;;;2.50;96.30;;;;;;4899434;29;20449;-74
2022/01/17 11:59:55;;;;;;;8.23;3.20;;;2.50;96.30;;;;;;4899400;29;20441;-74
2022/01/17 12:02:29;;;;;;;6.77;3.13;;;2.50;96.30;;;;;;4847700;29;20843;-77
2022/01/17 12:05:06;;;;;;;6.67;2.33;;;2.50;96.30;;;;;;4899129;29;20400;-74
2022/01/17 12:07:40;;;;;;;4.37;2.33;;;2.50;96.30;;;;;;4899247;29;20444;-74
2022/01/17 12:10:12;;;;;;;3.60;2.03;;;2.50;96.30;;;;;;4899216;29;20429;-73
2022/01/17 12:12:37;;;;;;;6.40;1.80;;;2.50;96.30;;;;;;4899051;29;20421;-74
2022/01/17 12:15:08;;;;;;;6.17;1.97;;;2.50;96.30;;;;;;4898966;29;20417;-74
2022/01/17 12:17:35;;;;;;;3.80;2.30;;;2.60;96.30;;;;;;4899087;29;20197;-74
2022/01/17 12:20:03;;;;;;;5.23;2.07;;;2.60;96.30;;;;;;4898971;29;20437;-74
2022/01/17 12:22:32;;;;;;;5.13;2.23;;;2.70;96.30;;;;;;4898905;29;20436;-73
2022/01/17 12:25:00;;;;;;;5.90;1.77;;;2.70;96.30;;;;;;4898797;29;20417;-73
2022/01/17 12:27:28;;;;;;;11.80;2.13;;;2.60;96.30;;;;;;4898856;29;20413;-73
2022/01/17 12:30:11;;;;;;;7.63;2.50;;;2.60;96.30;;;;;;4898887;29;20422;-73
2022/01/17 12:32:39;;;;;;;10.73;2.57;;;2.70;96.30;;;;;;4898840;29;20795;-72
2022/01/17 12:35:05;;;;;;;3.53;1.60;;;2.70;96.30;;;;;;4898530;29;20428;-72
2022/01/17 12:37:41;;;;;;;5.37;1.50;;;2.70;96.30;;;;;;4881757;29;20552;-72
2022/01/17 12:40:14;;;;;;;7.10;1.47;;;2.70;96.30;;;;;;4898672;29;20216;-71
2022/01/17 12:42:51;;;;;;;6.43;1.63;;;2.70;96.30;;;;;;4898634;29;20394;-75
2022/01/17 12:45:43;;;;;;;4.60;1.93;;;2.70;96.30;;;;;;4898458;29;21262;-73
2022/01/17 12:48:21;;;;;;;3.00;1.30;;;2.80;96.30;;;;;;4885908;29;20433;-73
2022/01/17 12:50:49;;;;;;;2.53;2.03;;;2.90;96.30;;;;;;4898372;29;20447;-73
2022/01/17 12:53:18;;;;;;;2.03;1.37;;;2.90;96.30;;;;;;4897445;29;20508;-73
2022/01/17 12:55:45;;;;;;;2.60;1.57;;;3.00;96.30;;;;;;4898391;29;20417;-73
2022/01/17 12:58:24;;;;;;;2.00;1.07;;;3.10;96.30;;;;;;4898294;29;20484;-74
2022/01/17 13:00:51;;;;;;;2.47;1.07;;;3.10;96.30;;;;;;4898255;29;20979;-72
2022/01/17 13:03:19;;;;;;;3.23;1.77;;;3.10;96.30;;;;;;4898102;29;20500;-73
2022/01/17 13:05:45;;;;;;;1.30;1.10;;;3.10;96.30;;;;;;4898148;29;20442;-73
2022/01/17 13:08:12;;;;;;;4.67;1.50;;;3.00;96.30;;;;;;4898104;29;20445;-73
2022/01/17 13:10:37;;;;;;;3.80;1.10;;;3.00;96.30;;;;;;4897995;29;20197;-71
2022/01/17 13:13:05;;;;;;;2.53;1.30;;;3.10;96.30;;;;;;4897968;29;20424;-72
2022/01/17 13:15:31;;;;;;;2.30;0.80;;;3.10;96.30;;;;;;4897874;29;20204;-72
2022/01/17 13:17:57;;;;;;;5.10;1.30;;;3.10;96.30;;;;;;4897966;29;20457;-71
2022/01/17 13:20:25;;;;;;;1.87;1.17;;;3.10;96.30;;;;;;4880916;29;20424;-73
2022/01/17 13:22:59;;;;;;;3.00;1.67;;;3.10;96.30;;;;;;4881056;29;20181;-74
2022/01/17 13:25:24;;;;;;;3.73;1.37;;;3.10;96.30;;;;;;4897611;29;20457;-73
2022/01/17 13:27:57;;;;;;;2.90;1.10;;;3.10;96.30;;;;;;4896693;29;20429;-74
2022/01/17 13:30:23;;;;;;;5.03;1.07;;;3.10;96.30;;;;;;4897686;29;20208;-73
2022/01/17 13:32:49;;;;;;;2.40;1.10;;;3.10;96.30;;;;;;4897663;29;21035;-75
2022/01/17 13:35:22;;;;;;;3.53;1.17;;;3.10;96.30;;;;;;4891146;29;20190;-75
2022/01/17 13:37:49;;;;;;;1.73;0.87;;;3.20;96.30;;;;;;4862116;29;20210;-74
2022/01/17 13:40:21;;;;;;;1.67;0.80;;;3.10;96.30;;;;;;4866802;29;20977;-75
2022/01/17 13:42:58;;;;;;;1.20;0.80;;;3.10;96.30;;;;;;4878742;29;20967;-75
2022/01/17 13:45:34;;;;;;;1.10;1.00;;;3.10;96.30;;;;;;4878632;29;20418;-75
2022/01/17 13:48:02;;;;;;;1.63;0.80;;;3.20;96.30;;;;;;4877559;29;20478;-77
2022/01/17 13:50:28;;;;;;;1.03;0.93;;;3.20;96.30;;;;;;4878580;29;20418;-75
2022/01/17 13:52:54;;;;;;;2.30;1.20;;;3.30;96.30;;;;;;4878777;29;20422;-75
2022/01/17 13:55:30;;;;;;;1.43;0.90;;;3.30;96.30;;;;;;4878823;29;20177;-77
2022/01/17 13:58:00;;;;;;;1.00;0.70;;;3.30;96.30;;;;;;4879452;29;20333;-77
2022/01/17 14:00:35;;;;;;;2.80;0.80;;;3.30;96.30;;;;;;4878998;29;20446;-77
2022/01/17 14:03:06;;;;;;;1.90;0.77;;;3.30;96.30;;;;;;4877404;29;20417;-77
2022/01/17 14:05:41;;;;;;;1.10;0.73;;;3.30;96.30;;;;;;4878337;29;20527;-77
2022/01/17 14:08:15;;;;;;;2.03;1.10;;;3.30;96.30;;;;;;4877284;29;20497;-77
2022/01/17 14:10:57;;;;;;;1.00;0.70;;;3.30;96.30;;;;;;4893813;29;20453;-76
2022/01/17 14:13:23;;;;;;;1.83;0.93;;;3.30;96.30;;;;;;4896890;29;20417;-75
2022/01/17 14:15:48;;;;;;;4.73;1.13;;;3.20;96.30;;;;;;4897056;29;20417;-76
2022/01/17 14:18:15;;;;;;;1.00;0.60;;;3.20;96.30;;;;;;4897023;29;20467;-72
2022/01/17 14:20:50;;;;;;;2.60;0.90;;;3.20;96.30;;;;;;4896879;29;20232;-72
2022/01/17 14:23:30;;;;;;;1.10;0.70;;;3.20;96.30;;;;;;4896860;29;20731;-74
2022/01/17 14:25:57;;;;;;;1.73;1.10;;;3.20;96.30;;;;;;4896905;29;20413;-73
2022/01/17 14:28:25;;;;;;;1.93;1.20;;;3.20;96.30;;;;;;4895790;29;20422;-74
2022/01/17 14:30:51;;;;;;;1.57;0.80;;;3.20;96.30;;;;;;4896981;29;20571;-74
2022/01/17 14:33:19;;;;;;;1.07;0.67;;;3.20;96.30;;;;;;4896654;29;20583;-74
2022/01/17 14:36:03;;;;;;;1.90;1.30;;;3.20;96.30;;;;;;4895505;29;20181;-74
2022/01/17 14:38:30;;;;;;;1.83;1.00;;;3.20;96.30;;;;;;4896858;29;20456;-75
2022/01/17 14:40:55;;;;;;;2.93;1.10;;;3.20;96.30;;;;;;4895427;29;21216;-74
2022/01/17 14:43:29;;;;;;;3.70;1.00;;;3.20;96.30;;;;;;4896742;29;20516;-73
2022/01/17 14:46:06;;;;;;;2.40;1.63;;;3.20;96.30;;;;;;4896768;29;20692;-74
2022/01/17 14:48:40;;;;;;;2.80;1.03;;;3.20;96.30;;;;;;4896695;29;21056;-74
2022/01/17 14:51:26;;;;;;;3.27;0.70;;;3.10;96.30;;;;;;4896721;29;20437;-75
2022/01/17 14:53:57;;;;;;;2.07;0.80;;;2.90;96.30;;;;;;4895324;29;20575;-75
2022/01/17 15:01:56;;;;;;;4.37;0.90;;;2.50;96.30;;;;;;4896726;29;20528;-74
2022/01/17 15:04:21;;;;;;;3.10;1.00;;;2.40;96.30;;;;;;4895186;29;20444;-74
2022/01/17 15:06:47;;;;;;;4.90;1.10;;;2.40;96.30;;;;;;4896620;29;20905;-76
2022/01/17 15:09:13;;;;;;;3.20;1.20;;;2.30;96.30;;;;;;4896634;29;20178;-76
2022/01/17 15:11:39;;;;;;;4.50;1.43;;;2.30;96.30;;;;;;4896469;29;20620;-76
2022/01/17 15:14:06;;;;;;;6.57;1.53;;;2.30;96.30;;;;;;4896412;29;20176;-76
2022/01/17 15:16:32;;;;;;;5.17;1.00;;;2.20;96.30;;;;;;4896425;29;20488;-77
2022/01/17 15:18:58;;;;;;;11.73;1.67;;;2.20;96.30;;;;;;4900054;29;20450;-77
2022/01/17 15:21:23;;;;;;;4.47;1.67;;;2.20;96.30;;;;;;4899874;29;20437;-78
2022/01/17 15:23:49;;;;;;;3.50;1.20;;;2.20;96.30;;;;;;4899779;29;20664;-77
2022/01/17 15:26:15;;;;;;;2.70;0.90;;;2.30;96.30;;;;;;4900032;29;20195;-77
2022/01/17 15:28:40;;;;;;;4.43;0.90;;;2.30;96.30;;;;;;4900201;29;20804;-77
2022/01/17 15:31:13;;;;;;;2.20;0.90;;;2.30;96.30;;;;;;4898953;29;20678;-77
2022/01/17 15:33:39;;;;;;;4.47;1.47;;;2.30;96.30;;;;;;4899801;29;20545;-74
2022/01/17 15:36:05;;;;;;;4.97;1.13;;;2.30;96.30;;;;;;4887109;29;20418;-75
2022/01/17 15:38:31;;;;;;;7.90;1.37;;;2.40;96.30;;;;;;4881101;29;20978;-74
2022/01/17 15:40:56;;;;;;;7.97;1.40;;;2.40;96.30;;;;;;4880835;29;20222;-74
2022/01/17 15:43:22;;;;;;;2.00;1.03;;;2.40;96.30;;;;;;4880749;29;20189;-74
2022/01/17 15:45:48;;;;;;;5.83;1.20;;;2.40;96.30;;;;;;4881001;29;20185;-74
2022/01/17 15:48:15;;;;;;;3.43;1.37;;;2.40;96.30;;;;;;4864380;29;20422;-73
2022/01/17 15:50:41;;;;;;;8.87;1.20;;;2.40;96.30;;;;;;4863989;29;20474;-72
2022/01/17 15:53:06;;;;;;;2.20;1.40;;;2.30;96.30;;;;;;4880689;29;20470;-72
2022/01/17 15:55:32;;;;;;;5.80;1.03;;;1.90;96.30;;;;;;4880643;29;20181;-73
2022/01/17 15:57:58;;;;;;;9.40;1.10;;;1.70;96.30;;;;;;4864066;29;20197;-72
2022/01/17 16:00:23;;;;;;;9.00;1.50;;;1.30;96.30;;;;;;4880636;29;20173;-72
2022/01/17 16:02:49;;;;;;;13.20;1.70;;;1.10;96.30;;;;;;4880568;29;20205;-73
2022/01/17 16:05:14;;;;;;;7.33;1.43;;;0.90;96.30;;;;;;4880521;29;20178;-74
2022/01/17 16:07:40;;;;;;;8.00;1.40;;;0.90;96.30;;;;;;4881128;29;20189;-75
2022/01/17 16:10:07;;;;;;;9.30;1.63;;;0.80;96.30;;;;;;4893307;29;20196;-72
2022/01/17 16:12:36;;;;;;;7.23;1.60;;;0.80;96.30;;;;;;4899329;29;20696;-75
2022/01/17 16:15:07;;;;;;;7.50;1.97;;;0.70;96.30;;;;;;4899237;29;20413;-72
2022/01/17 16:17:32;;;;;;;8.30;1.67;;;0.80;96.30;;;;;;4899159;29;20464;-72
2022/01/17 16:19:58;;;;;;;9.17;1.80;;;0.70;96.30;;;;;;4899372;29;20540;-73
2022/01/17 16:22:23;;;;;;;6.27;1.63;;;0.80;96.30;;;;;;4899185;29;20276;-72
2022/01/17 16:24:49;;;;;;;14.03;1.90;;;0.80;96.30;;;;;;4899263;29;20204;-75
2022/01/17 16:27:15;;;;;;;7.60;1.77;;;0.80;96.30;;;;;;4898750;29;20177;-73
2022/01/17 16:29:50;;;;;;;7.57;1.43;;;0.80;96.30;;;;;;4881655;29;20185;-73
2022/01/17 16:32:15;;;;;;;10.83;3.20;;;0.80;96.30;;;;;;4899075;29;20723;-74
2022/01/17 16:34:42;;;;;;;10.03;2.50;;;0.90;96.30;;;;;;4896975;29;20425;-73
2022/01/17 16:37:08;;;;;;;18.07;2.60;;;0.90;96.30;;;;;;4883300;29;20201;-76
2022/01/17 16:39:33;;;;;;;12.67;1.97;;;0.90;96.30;;;;;;4866450;29;20490;-73
2022/01/17 16:41:59;;;;;;;10.67;1.77;;;1.00;96.30;;;;;;4887025;29;20967;-73
2022/01/17 16:44:26;;;;;;;11.03;1.83;;;1.00;96.30;;;;;;4868433;29;20209;-73
2022/01/17 16:46:51;;;;;;;8.67;1.93;;;1.00;96.30;;;;;;4879905;29;20185;-73
2022/01/17 16:49:17;;;;;;;5.57;1.70;;;1.00;96.30;;;;;;4879614;29;20410;-73
2022/01/17 16:51:42;;;;;;;13.90;2.50;;;1.10;96.30;;;;;;4879754;29;20250;-74
2022/01/17 16:54:08;;;;;;;3.97;1.37;;;1.10;96.30;;;;;;4881334;29;20189;-77
2022/01/17 16:56:35;;;;;;;14.70;2.03;;;1.10;96.30;;;;;;4889708;29;20205;-77
2022/01/17 16:59:01;;;;;;;11.30;2.13;;;1.10;96.30;;;;;;4898264;29;20200;-77
2022/01/17 17:01:26;;;;;;;14.73;2.63;;;1.10;96.30;;;;;;4884564;29;20494;-77
2022/01/17 17:03:52;;;;;;;10.17;1.77;;;1.10;96.30;;;;;;4878658;29;20414;-77
2022/01/17 17:06:17;;;;;;;7.67;1.53;;;1.10;96.30;;;;;;4866004;29;20268;-74
2022/01/17 17:08:43;;;;;;;18.37;2.40;;;1.10;96.30;;;;;;4898297;29;20185;-74
2022/01/17 17:11:08;;;;;;;14.90;2.10;;;1.00;96.30;;;;;;4892120;29;20556;-74
2022/01/17 17:13:34;;;;;;;10.10;2.07;;;1.10;96.30;;;;;;4897544;29;20180;-74
2022/01/17 17:16:00;;;;;;;16.77;2.80;;;1.10;96.30;;;;;;4883394;29;20209;-75
2022/01/17 17:18:30;;;;;;;11.00;2.50;;;1.00;96.30;;;;;;4879979;29;20892;-74
2022/01/17 19:14:44;;;;;;;12.37;2.20;;;0.90;96.30;;;;;;4861356;29;20477;-74
2022/01/17 19:17:11;;;;;;;15.83;2.60;;;0.80;96.30;;;;;;4862930;29;20826;-75
2022/01/17 19:20:05;;;;;;;7.00;2.27;;;0.80;96.30;;;;;;4846269;29;20565;-75
2022/01/17 19:22:24;;;;;;;9.80;2.40;;;0.70;96.30;;;;;;4879523;29;20456;-74
2022/01/17 19:24:50;;;;;;;11.90;3.10;;;0.60;96.30;;;;;;4881158;29;20414;-72
2022/01/17 19:27:20;;;;;;;11.97;1.97;;;0.70;96.30;;;;;;4881306;29;20418;-74
2022/01/17 19:29:47;;;;;;;22.23;3.70;;;0.70;96.30;;;;;;4881319;29;20415;-74
2022/01/17 19:32:13;;;;;;;11.17;2.73;;;0.70;96.30;;;;;;4881262;29;20441;-74
2022/01/17 19:34:40;;;;;;;15.30;3.17;;;0.70;96.30;;;;;;4880956;29;20789;-74
2022/01/17 19:37:05;;;;;;;18.43;4.20;;;0.70;96.30;;;;;;4864422;29;20217;-76
2022/01/17 19:39:33;;;;;;;19.93;3.87;;;0.70;96.30;;;;;;4864674;29;20422;-74
2022/01/17 19:41:59;;;;;;;13.73;3.50;;;0.80;96.30;;;;;;4880996;29;20692;-74
2022/01/17 19:44:24;;;;;;;17.67;2.80;;;0.80;96.30;;;;;;4880826;29;20410;-74
2022/01/17 19:46:50;;;;;;;19.47;3.77;;;0.80;96.30;;;;;;4864273;29;20237;-77
2022/01/17 19:49:16;;;;;;;18.63;3.40;;;0.70;96.30;;;;;;4881031;29;20547;-76
2022/01/17 19:51:41;;;;;;;19.83;3.50;;;0.70;96.30;;;;;;4880934;29;20434;-74
2022/01/17 19:54:07;;;;;;;23.30;3.30;;;0.70;96.30;;;;;;4880769;29;20181;-75
2022/01/17 19:56:33;;;;;;;16.30;3.57;;;0.60;96.30;;;;;;4864040;29;20186;-76
2022/01/17 19:59:00;;;;;;;16.33;3.67;;;0.60;96.30;;;;;;4880781;29;20342;-76
2022/01/17 20:01:26;;;;;;;18.77;3.37;;;0.60;96.30;;;;;;4864343;29;20206;-75
2022/01/17 20:03:52;;;;;;;20.33;4.00;;;0.70;96.30;;;;;;4863565;29;20418;-74
2022/01/17 20:06:18;;;;;;;15.90;3.27;;;0.60;96.30;;;;;;4880711;29;20466;-74
2022/01/17 20:08:45;;;;;;;14.23;3.10;;;0.60;96.30;;;;;;4880662;29;20177;-74
2022/01/17 20:11:10;;;;;;;26.97;4.43;;;0.60;96.30;;;;;;4880513;29;20446;-74
2022/01/17 20:13:40;;;;;;;16.80;3.10;;;0.60;96.30;;;;;;4863511;29;20434;-74
2022/01/17 20:16:06;;;;;;;18.40;3.60;;;0.60;96.30;;;;;;4879394;29;20181;-74
2022/01/17 20:18:32;;;;;;;24.63;5.00;;;0.50;96.30;;;;;;4880439;29;20473;-74
2022/01/17 20:20:57;;;;;;;17.83;3.10;;;0.50;96.30;;;;;;4880319;29;20232;-74
2022/01/17 20:23:23;;;;;;;12.53;3.67;;;0.50;96.30;;;;;;4863418;29;20549;-76
2022/01/17 20:25:51;;;;;;;10.03;3.70;;;0.50;96.30;;;;;;4880197;29;20201;-74